createdAt,value
2018-06-17T00:01:08.884Z,14.70
2018-06-17T00:03:37.328Z,14.60
2018-06-17T00:06:05.812Z,14.50
2018-06-17T00:08:34.239Z,14.50
2018-06-17T00:11:02.687Z,14.50
2018-06-17T00:13:31.119Z,14.50
2018-06-17T00:15:59.580Z,14.50
2018-06-17T00:18:28.019Z,14.50
2018-06-17T00:20:56.464Z,14.40
2018-06-17T00:23:24.912Z,14.50
2018-06-17T00:25:53.340Z,14.50
2018-06-17T00:28:21.791Z,14.50
2018-06-17T00:30:50.223Z,14.50
2018-06-17T00:33:18.668Z,14.50
2018-06-17T00:35:47.100Z,14.30
2018-06-17T00:38:15.551Z,14.20
2018-06-17T00:40:43.983Z,14.20
2018-06-17T00:43:12.479Z,14.10
2018-06-17T00:45:40.912Z,13.90
2018-06-17T00:48:09.359Z,13.80
2018-06-17T00:50:37.782Z,13.70
2018-06-17T00:53:06.263Z,13.70
2018-06-17T00:55:34.696Z,13.70
2018-06-17T00:58:03.160Z,13.80
2018-06-17T01:00:31.607Z,13.90
2018-06-17T01:03:00.080Z,14.00
2018-06-17T01:05:28.505Z,14.10
2018-06-17T01:07:56.943Z,14.20
2018-06-17T01:10:25.375Z,14.30
2018-06-17T01:12:53.803Z,14.40
2018-06-17T01:15:22.252Z,14.60
2018-06-17T01:17:50.669Z,14.60
2018-06-17T01:22:47.235Z,14.80
2018-06-17T01:25:15.672Z,14.80
2018-06-17T01:27:44.080Z,14.90
2018-06-17T01:30:12.557Z,15.00
2018-06-17T01:32:40.988Z,15.00
2018-06-17T01:35:09.420Z,15.00
2018-06-17T01:37:37.836Z,15.00
2018-06-17T01:40:06.271Z,15.00
2018-06-17T01:42:41.007Z,15.00
2018-06-17T01:45:09.440Z,14.90
2018-06-17T01:47:37.851Z,14.80
2018-06-17T01:50:06.349Z,14.80
2018-06-17T01:52:34.759Z,14.80
2018-06-17T01:55:03.235Z,14.80
2018-06-17T01:57:31.639Z,14.80
2018-06-17T02:00:00.104Z,14.80
2018-06-17T02:02:28.561Z,14.70
2018-06-17T02:06:03.001Z,14.60
2018-06-17T02:09:35.505Z,14.60
2018-06-17T02:12:09.200Z,14.50
2018-06-17T02:14:42.947Z,14.50
2018-06-17T02:17:11.375Z,14.50
2018-06-17T02:19:39.804Z,14.40
2018-06-17T02:22:08.271Z,14.40
2018-06-17T02:24:36.746Z,14.40
2018-06-17T02:27:05.290Z,14.40
2018-06-17T02:29:33.715Z,14.40
2018-06-17T02:32:02.161Z,14.40
2018-06-17T02:34:30.608Z,14.40
2018-06-17T02:36:59.056Z,14.40
2018-06-17T02:39:27.493Z,14.40
2018-06-17T02:41:55.931Z,14.40
2018-06-17T02:44:24.360Z,14.30
2018-06-17T02:46:58.165Z,14.10
2018-06-17T02:49:32.167Z,13.90
2018-06-17T02:52:06.079Z,13.80
2018-06-17T02:54:40.251Z,13.80
2018-06-17T02:57:10.088Z,13.80
2018-06-17T02:59:38.653Z,13.90
2018-06-17T03:02:07.280Z,13.90
2018-06-17T03:04:35.711Z,14.00
2018-06-17T03:07:04.197Z,14.00
2018-06-17T03:09:32.640Z,14.00
2018-06-17T03:12:01.061Z,13.90
2018-06-17T03:14:29.506Z,13.90
2018-06-17T03:16:57.938Z,13.90
2018-06-17T03:19:26.394Z,13.90
2018-06-17T03:21:54.813Z,13.90
2018-06-17T03:25:31.376Z,13.80
2018-06-17T03:28:05.063Z,13.80
2018-06-17T03:33:12.444Z,13.90
2018-06-17T03:35:46.359Z,14.00
2018-06-17T03:38:14.802Z,14.10
2018-06-17T03:40:43.243Z,14.10
2018-06-17T03:43:11.655Z,14.10
2018-06-17T03:48:08.268Z,14.20
2018-06-17T03:50:36.695Z,14.30
2018-06-17T03:53:05.100Z,14.30
2018-06-17T03:55:33.677Z,14.40
2018-06-17T03:58:02.099Z,14.50
2018-06-17T04:00:30.528Z,14.50
2018-06-17T04:02:58.956Z,14.50
2018-06-17T04:05:29.149Z,14.50
2018-06-17T04:07:59.044Z,14.50
2018-06-17T04:10:27.480Z,14.60
2018-06-17T04:12:56.108Z,14.70
2018-06-17T04:15:24.541Z,14.80
2018-06-17T04:17:52.952Z,15.00
2018-06-17T04:20:21.493Z,15.00
2018-06-17T04:22:49.911Z,15.00
2018-06-17T04:25:18.810Z,15.10
2018-06-17T04:27:47.183Z,15.40
2018-06-17T04:30:15.600Z,15.80
2018-06-17T04:32:44.036Z,16.20
2018-06-17T04:35:12.457Z,16.70
2018-06-17T04:37:40.980Z,17.10
2018-06-17T04:40:09.532Z,17.40
2018-06-17T04:42:37.976Z,17.60
2018-06-17T04:45:06.426Z,17.50
2018-06-17T04:47:34.852Z,17.70
2018-06-17T04:50:03.257Z,17.90
2018-06-17T04:52:31.707Z,18.00
2018-06-17T04:55:00.117Z,18.10
2018-06-17T04:57:28.551Z,18.10
2018-06-17T04:59:56.985Z,18.10
2018-06-17T05:02:25.452Z,18.40
2018-06-17T05:04:53.849Z,18.90
2018-06-17T05:07:22.278Z,19.10
2018-06-17T05:09:50.694Z,19.10
2018-06-17T05:12:19.152Z,18.80
2018-06-17T05:14:47.557Z,18.60
2018-06-17T05:17:15.972Z,18.40
2018-06-17T05:19:44.392Z,18.30
2018-06-17T05:22:12.804Z,18.20
2018-06-17T05:24:41.250Z,18.00
2018-06-17T05:27:09.649Z,17.90
2018-06-17T05:29:38.076Z,17.90
2018-06-17T05:32:06.641Z,17.80
2018-06-17T05:34:35.064Z,17.80
2018-06-17T05:37:03.509Z,17.80
2018-06-17T05:42:00.053Z,17.80
2018-06-17T05:44:28.470Z,17.80
2018-06-17T05:46:56.861Z,17.80
2018-06-17T05:49:25.288Z,17.70
2018-06-17T05:51:53.684Z,17.70
2018-06-17T05:54:22.097Z,17.60
2018-06-17T05:56:50.500Z,17.50
2018-06-17T05:59:18.920Z,17.40
2018-06-17T06:01:47.327Z,17.40
2018-06-17T06:04:15.772Z,17.30
2018-06-17T06:06:44.181Z,17.30
2018-06-17T06:09:13.088Z,17.40
2018-06-17T06:11:42.569Z,17.40
2018-06-17T06:14:11.013Z,17.50
2018-06-17T06:16:39.415Z,17.50
2018-06-17T06:19:07.881Z,17.60
2018-06-17T06:21:36.319Z,17.70
2018-06-17T06:24:04.745Z,17.80
2018-06-17T06:26:33.176Z,17.90
2018-06-17T06:29:01.580Z,17.80
2018-06-17T06:31:30.009Z,17.90
2018-06-17T06:33:58.424Z,17.90
2018-06-17T06:36:26.846Z,17.90
2018-06-17T06:38:55.245Z,17.90
2018-06-17T06:41:23.676Z,18.00
2018-06-17T06:43:52.075Z,18.10
2018-06-17T06:46:20.532Z,18.10
2018-06-17T06:48:48.955Z,18.30
2018-06-17T06:51:17.374Z,18.70
2018-06-17T06:56:13.951Z,21.50
2018-06-17T06:58:42.352Z,23.40
2018-06-17T07:01:10.807Z,24.90
2018-06-17T07:03:50.535Z,25.80
2018-06-17T07:06:30.202Z,26.30
2018-06-17T07:09:13.603Z,27.00
2018-06-17T07:11:42.045Z,27.60
2018-06-17T07:14:10.450Z,27.70
2018-06-17T07:16:50.122Z,27.60
2018-06-17T07:19:18.553Z,27.50
2018-06-17T07:21:46.983Z,27.80
2018-06-17T07:24:15.388Z,28.00
2018-06-17T07:26:56.264Z,28.00
2018-06-17T07:29:37.432Z,27.80
2018-06-17T07:32:05.911Z,27.60
2018-06-17T07:34:34.331Z,27.30
2018-06-17T07:37:03.007Z,27.20
2018-06-17T07:41:41.419Z,27.00
2018-06-17T07:44:09.859Z,26.70
2018-06-17T07:46:38.281Z,25.80
2018-06-17T07:49:28.051Z,26.00
2018-06-17T07:52:09.259Z,26.30
2018-06-17T07:54:38.773Z,26.10
2018-06-17T07:57:07.748Z,25.80
2018-06-17T07:59:36.559Z,26.20
2018-06-17T08:02:05.849Z,26.10
2018-06-17T08:04:34.293Z,25.80
2018-06-17T08:07:02.726Z,25.20
2018-06-17T08:11:59.799Z,24.80
2018-06-17T08:16:56.860Z,25.30
2018-06-17T08:19:26.480Z,25.40
2018-06-17T08:21:55.664Z,25.70
2018-06-17T08:24:24.389Z,25.60
2018-06-17T08:26:52.906Z,25.00
2018-06-17T08:29:21.317Z,24.10
2018-06-17T08:31:49.740Z,23.40
2018-06-17T08:34:18.140Z,23.50
2018-06-17T08:36:46.566Z,23.50
2018-06-17T08:39:18.012Z,24.30
2018-06-17T08:41:46.460Z,24.40
2018-06-17T08:44:15.805Z,24.10
2018-06-17T08:46:44.969Z,23.80
2018-06-17T08:49:13.872Z,23.80
2018-06-17T08:51:42.323Z,23.30
2018-06-17T08:54:10.780Z,22.90
2018-06-17T08:56:39.292Z,23.10
2018-06-17T08:59:07.759Z,24.20
2018-06-17T09:01:36.176Z,25.30
2018-06-17T09:04:04.636Z,25.80
2018-06-17T09:06:33.069Z,26.70
2018-06-17T09:09:01.470Z,27.40
2018-06-17T09:11:29.884Z,27.60
2018-06-17T09:13:58.292Z,26.90
2018-06-17T09:16:26.718Z,26.30
2018-06-17T09:18:55.120Z,26.60
2018-06-17T09:21:23.556Z,26.60
2018-06-17T09:23:51.964Z,26.30
2018-06-17T09:26:20.369Z,25.90
2018-06-17T09:28:48.793Z,26.20
2018-06-17T09:31:17.203Z,26.50
2018-06-17T09:33:45.653Z,26.60
2018-06-17T09:36:14.668Z,26.80
2018-06-17T09:38:43.088Z,27.20
2018-06-17T09:41:11.504Z,27.20
2018-06-17T09:43:39.929Z,26.80
2018-06-17T09:46:08.334Z,26.30
2018-06-17T09:48:36.756Z,26.30
2018-06-17T09:51:05.180Z,26.60
2018-06-17T09:53:33.600Z,27.00
2018-06-17T09:56:02.001Z,27.40
2018-06-17T09:58:30.427Z,27.50
2018-06-17T10:00:58.851Z,27.60
2018-06-17T10:03:27.296Z,27.80
2018-06-17T10:05:55.733Z,27.80
2018-06-17T10:08:24.155Z,27.80
2018-06-17T10:10:55.580Z,28.00
2018-06-17T10:13:26.032Z,28.10
2018-06-17T10:15:54.640Z,28.20
2018-06-17T10:18:23.716Z,28.20
2018-06-17T10:20:52.288Z,27.80
2018-06-17T10:23:21.000Z,28.30
2018-06-17T10:25:49.419Z,28.70
2018-06-17T10:28:18.589Z,28.60
2018-06-17T10:30:48.259Z,27.70
2018-06-17T10:33:16.692Z,27.10
2018-06-17T10:35:45.739Z,26.30
2018-06-17T10:38:14.170Z,25.60
2018-06-17T10:40:42.576Z,25.30
2018-06-17T10:43:15.329Z,25.80
2018-06-17T10:45:43.872Z,26.50
2018-06-17T10:48:12.792Z,27.10
2018-06-17T10:50:41.259Z,27.10
2018-06-17T10:55:37.995Z,26.10
2018-06-17T10:58:06.467Z,25.60
2018-06-17T11:00:34.913Z,25.10
2018-06-17T11:03:03.403Z,24.70
2018-06-17T11:05:31.842Z,24.60
2018-06-17T11:08:00.278Z,24.50
2018-06-17T11:10:28.718Z,24.40
2018-06-17T11:12:57.166Z,24.40
2018-06-17T11:15:25.568Z,24.40
2018-06-17T11:17:53.989Z,24.50
2018-06-17T11:20:22.437Z,24.60
2018-06-17T11:22:50.839Z,24.50
2018-06-17T11:25:19.265Z,24.40
2018-06-17T11:27:47.669Z,24.40
2018-06-17T11:30:16.108Z,24.50
2018-06-17T11:32:44.516Z,24.30
2018-06-17T11:35:12.940Z,24.30
2018-06-17T11:37:41.337Z,24.30
2018-06-17T11:40:09.752Z,24.40
2018-06-17T11:42:38.180Z,24.50
2018-06-17T11:45:06.576Z,24.60
2018-06-17T11:47:35.008Z,24.60
2018-06-17T11:50:03.474Z,24.60
2018-06-17T11:52:31.907Z,24.90
2018-06-17T11:57:28.456Z,26.70
2018-06-17T11:59:56.859Z,26.70
2018-06-17T12:02:25.275Z,26.10
2018-06-17T12:04:53.687Z,26.00
2018-06-17T12:07:22.107Z,25.80
2018-06-17T12:09:50.516Z,25.90
2018-06-17T12:12:18.940Z,26.30
2018-06-17T12:14:47.383Z,26.70
2018-06-17T12:17:15.775Z,26.80
2018-06-17T12:19:44.179Z,26.40
2018-06-17T12:22:12.603Z,25.70
2018-06-17T12:24:41.004Z,25.10
2018-06-17T12:27:09.415Z,24.40
2018-06-17T12:29:37.812Z,24.30
2018-06-17T12:32:06.373Z,24.60
2018-06-17T12:34:34.796Z,25.00
2018-06-17T12:37:03.232Z,25.30
2018-06-17T12:39:31.652Z,25.90
2018-06-17T12:42:00.078Z,26.70
2018-06-17T12:44:28.496Z,27.10
2018-06-17T12:46:56.897Z,26.80
2018-06-17T12:49:25.340Z,26.70
2018-06-17T12:51:53.761Z,26.40
2018-06-17T12:54:22.184Z,26.50
2018-06-17T12:56:50.588Z,26.70
2018-06-17T12:59:19.016Z,27.00
2018-06-17T13:01:47.436Z,26.90
2018-06-17T13:04:15.910Z,26.80
2018-06-17T13:06:44.315Z,26.50
2018-06-17T13:09:12.948Z,26.00
2018-06-17T13:11:41.365Z,25.60
2018-06-17T13:14:09.812Z,25.60
2018-06-17T13:16:38.229Z,26.00
2018-06-17T13:19:06.867Z,26.30
2018-06-17T13:21:35.332Z,26.50
2018-06-17T13:24:03.801Z,26.80
2018-06-17T13:26:32.317Z,26.80
2018-06-17T13:29:00.737Z,26.80
2018-06-17T13:31:29.141Z,27.00
2018-06-17T13:33:57.583Z,27.00
2018-06-17T13:36:25.991Z,26.90
2018-06-17T13:38:54.404Z,27.30
2018-06-17T13:41:22.879Z,27.60
2018-06-17T13:43:51.277Z,27.80
2018-06-17T13:46:19.708Z,27.00
2018-06-17T13:48:48.121Z,26.60
2018-06-17T13:51:16.580Z,26.70
2018-06-17T13:53:44.994Z,27.10
2018-06-17T13:56:13.420Z,27.40
2018-06-17T13:58:48.636Z,27.60
2018-06-17T14:01:17.094Z,27.40
2018-06-17T14:03:45.533Z,27.00
2018-06-17T14:06:13.960Z,26.70
2018-06-17T14:08:42.372Z,26.70
2018-06-17T14:11:10.803Z,26.80
2018-06-17T14:13:39.204Z,26.90
2018-06-17T14:16:07.652Z,26.80
2018-06-17T14:18:36.056Z,26.70
2018-06-17T14:21:04.580Z,27.00
2018-06-17T14:23:33.003Z,27.10
2018-06-17T14:26:01.456Z,27.10
2018-06-17T14:28:29.874Z,26.30
2018-06-17T14:30:58.308Z,25.80
2018-06-17T14:33:26.716Z,25.40
2018-06-17T14:35:55.299Z,25.10
2018-06-17T14:38:23.700Z,24.80
2018-06-17T14:40:57.513Z,24.70
2018-06-17T14:43:31.396Z,24.70
2018-06-17T14:46:05.040Z,24.70
2018-06-17T14:48:38.708Z,24.90
2018-06-17T14:51:12.449Z,25.30
2018-06-17T14:53:40.855Z,25.70
2018-06-17T14:56:09.295Z,25.80
2018-06-17T14:58:37.714Z,25.90
2018-06-17T15:01:06.175Z,26.30
2018-06-17T15:03:34.656Z,26.60
2018-06-17T15:06:03.053Z,26.60
2018-06-17T15:08:31.473Z,26.60
2018-06-17T15:10:59.896Z,26.30
2018-06-17T15:13:28.334Z,25.80
2018-06-17T15:15:56.857Z,25.30
2018-06-17T15:18:25.241Z,25.20
2018-06-17T15:20:53.721Z,25.00
2018-06-17T15:23:22.148Z,25.00
2018-06-17T15:25:50.548Z,25.20
2018-06-17T15:28:18.963Z,25.40
2018-06-17T15:30:47.389Z,25.60
2018-06-17T15:33:21.239Z,25.50
2018-06-17T15:36:54.917Z,25.30
2018-06-17T15:39:28.584Z,25.00
2018-06-17T15:41:57.008Z,24.60
2018-06-17T15:44:25.427Z,24.50
2018-06-17T15:46:53.831Z,24.40
2018-06-17T15:49:22.697Z,24.50
2018-06-17T15:51:51.111Z,24.60
2018-06-17T15:54:19.576Z,24.50
2018-06-17T15:56:47.980Z,24.40
2018-06-17T15:59:16.391Z,24.00
2018-06-17T16:01:44.798Z,23.90
2018-06-17T16:04:13.259Z,23.80
2018-06-17T16:06:41.681Z,23.80
2018-06-17T16:09:11.569Z,23.80
2018-06-17T16:11:45.196Z,23.80
2018-06-17T16:14:18.968Z,23.80
2018-06-17T16:19:26.376Z,23.80
2018-06-17T16:21:54.809Z,23.80
2018-06-17T16:24:23.205Z,23.80
2018-06-17T16:26:51.659Z,23.80
2018-06-17T16:29:20.169Z,23.70
2018-06-17T16:31:48.616Z,23.60
2018-06-17T16:34:17.013Z,23.40
2018-06-17T16:36:45.440Z,23.30
2018-06-17T16:39:13.842Z,23.20
2018-06-17T16:41:42.655Z,23.10
2018-06-17T16:44:11.730Z,23.00
2018-06-17T16:46:41.161Z,23.00
2018-06-17T16:49:09.816Z,22.90
2018-06-17T16:51:43.524Z,22.90
2018-06-17T16:54:17.220Z,22.80
2018-06-17T16:56:50.951Z,22.80
2018-06-17T16:59:24.652Z,22.80
2018-06-17T17:01:53.076Z,22.70
2018-06-17T17:04:21.496Z,22.70
2018-06-17T17:06:49.907Z,22.70
2018-06-17T17:09:18.307Z,22.70
2018-06-17T17:11:46.740Z,22.70
2018-06-17T17:14:15.131Z,22.70
2018-06-17T17:16:43.533Z,22.80
2018-06-17T17:19:11.969Z,22.80
2018-06-17T17:21:40.378Z,22.80
2018-06-17T17:24:08.790Z,22.80
2018-06-17T17:26:37.192Z,22.70
2018-06-17T17:29:05.659Z,22.60
2018-06-17T17:31:39.576Z,22.50
2018-06-17T17:34:13.367Z,22.50
2018-06-17T17:36:47.137Z,22.50
2018-06-17T17:39:20.972Z,22.50
2018-06-17T17:41:49.448Z,22.50
2018-06-17T17:44:17.903Z,22.30
2018-06-17T17:46:51.656Z,22.20
2018-06-17T17:49:20.084Z,22.10
2018-06-17T17:51:48.490Z,22.00
2018-06-17T17:54:16.941Z,22.00
2018-06-17T17:56:45.334Z,21.90
2018-06-17T17:59:13.761Z,21.90
2018-06-17T18:01:42.173Z,21.80
2018-06-17T18:04:17.044Z,21.80
2018-06-17T18:06:45.436Z,21.80
2018-06-17T18:09:13.853Z,21.70
2018-06-17T18:11:42.261Z,21.70
2018-06-17T18:14:10.675Z,21.60
2018-06-17T18:19:07.215Z,21.30
2018-06-17T18:21:35.605Z,21.20
2018-06-17T18:24:04.058Z,21.10
2018-06-17T18:26:37.784Z,20.90
2018-06-17T18:30:15.649Z,20.80
2018-06-17T18:32:49.568Z,20.70
2018-06-17T18:35:23.324Z,20.60
2018-06-17T18:37:51.715Z,20.50
2018-06-17T18:40:20.156Z,20.40
2018-06-17T18:42:48.571Z,20.30
2018-06-17T18:45:16.999Z,20.30
2018-06-17T18:47:45.398Z,20.20
2018-06-17T18:50:13.825Z,20.20
2018-06-17T18:52:42.238Z,20.20
2018-06-17T18:55:10.694Z,20.10
2018-06-17T19:00:07.767Z,19.90
2018-06-17T19:02:36.186Z,19.80
2018-06-17T19:05:04.672Z,19.70
2018-06-17T19:07:33.115Z,19.70
2018-06-17T19:10:06.949Z,19.60
2018-06-17T19:12:40.832Z,19.60
2018-06-17T19:15:14.561Z,19.60
2018-06-17T19:18:18.077Z,19.50
2018-06-17T19:20:46.565Z,19.40
2018-06-17T19:23:14.971Z,19.30
2018-06-17T19:25:43.383Z,19.20
2018-06-17T19:28:11.787Z,19.10
2018-06-17T19:30:40.211Z,19.10
2018-06-17T19:33:08.620Z,19.10
2018-06-17T19:35:37.021Z,19.00
2018-06-17T19:38:05.639Z,19.00
2018-06-17T19:40:34.047Z,19.00
2018-06-17T19:43:02.484Z,19.00
2018-06-17T19:45:30.976Z,18.90
2018-06-17T19:47:59.372Z,19.00
2018-06-17T19:50:33.088Z,19.00
2018-06-17T19:53:06.724Z,19.00
2018-06-17T19:55:40.608Z,18.90
2018-06-17T19:58:14.335Z,18.90
2018-06-17T20:00:44.259Z,18.90
2018-06-17T20:03:12.724Z,19.00
2018-06-17T20:05:41.124Z,19.00
2018-06-17T20:10:37.666Z,19.00
2018-06-17T20:13:06.099Z,19.00
2018-06-17T20:15:34.513Z,19.00
2018-06-17T20:18:02.936Z,19.00
2018-06-17T20:20:32.181Z,19.00
2018-06-17T20:23:00.620Z,18.90
2018-06-17T20:25:29.056Z,18.90
2018-06-17T20:27:57.476Z,18.90
2018-06-17T20:30:25.878Z,18.80
2018-06-17T20:32:59.676Z,18.80
2018-06-17T20:35:33.445Z,18.80
2018-06-17T20:38:07.149Z,18.80
2018-06-17T20:40:40.851Z,18.70
2018-06-17T20:43:14.611Z,18.70
2018-06-17T20:45:43.032Z,18.50
2018-06-17T20:48:11.455Z,18.40
2018-06-17T20:50:39.851Z,18.30
2018-06-17T20:53:08.285Z,18.30
2018-06-17T20:55:36.691Z,18.30
2018-06-17T20:58:05.125Z,18.30
2018-06-17T21:00:33.608Z,18.30
2018-06-17T21:03:02.046Z,18.20
2018-06-17T21:05:30.473Z,18.10
2018-06-17T21:07:58.912Z,18.00
2018-06-17T21:10:27.304Z,17.90
2018-06-17T21:12:55.780Z,17.90
2018-06-17T21:15:24.196Z,17.90
2018-06-17T21:17:52.610Z,17.80
2018-06-17T21:20:26.528Z,17.80
2018-06-17T21:23:00.244Z,17.80
2018-06-17T21:25:34.039Z,17.80
2018-06-17T21:28:02.871Z,17.70
2018-06-17T21:30:31.273Z,17.60
2018-06-17T21:32:59.668Z,17.60
2018-06-17T21:35:28.097Z,17.50
2018-06-17T21:37:56.495Z,17.40
2018-06-17T21:40:24.924Z,17.30
2018-06-17T21:42:53.324Z,17.30
2018-06-17T21:45:21.740Z,17.20
2018-06-17T21:47:50.167Z,17.20
2018-06-17T21:50:18.583Z,17.20
2018-06-17T21:52:46.981Z,17.20
2018-06-17T21:55:15.403Z,17.10
2018-06-17T21:57:43.821Z,16.90
2018-06-17T22:00:12.240Z,16.90
2018-06-17T22:02:43.522Z,16.80
2018-06-17T22:05:12.244Z,16.70
2018-06-17T22:07:46.131Z,16.70
2018-06-17T22:10:19.766Z,16.70
2018-06-17T22:12:53.636Z,16.70
2018-06-17T22:15:27.597Z,16.70
2018-06-17T22:17:56.136Z,16.70
2018-06-17T22:20:24.582Z,16.70
2018-06-17T22:22:53.143Z,16.60
2018-06-17T22:25:21.576Z,16.50
2018-06-17T22:30:18.137Z,16.30
2018-06-17T22:32:46.641Z,16.20
2018-06-17T22:35:15.324Z,16.10
2018-06-17T22:37:43.725Z,16.00
2018-06-17T22:40:12.164Z,15.90
2018-06-17T22:42:40.569Z,15.90
2018-06-17T22:45:09.038Z,15.80
2018-06-17T22:47:42.955Z,15.80
2018-06-17T22:50:11.388Z,15.80
2018-06-17T22:52:51.804Z,15.90
2018-06-17T22:55:20.239Z,16.00
2018-06-17T22:57:54.050Z,16.10
2018-06-17T23:00:27.809Z,16.10
2018-06-17T23:03:01.588Z,16.10
2018-06-17T23:05:35.327Z,16.20
2018-06-17T23:08:09.080Z,16.20
2018-06-17T23:10:37.557Z,16.10
2018-06-17T23:13:06.148Z,16.10
2018-06-17T23:15:34.568Z,16.00
2018-06-17T23:18:03.037Z,16.00
2018-06-17T23:20:31.471Z,16.00
2018-06-17T23:22:59.895Z,16.00
2018-06-17T23:25:28.304Z,16.00
2018-06-17T23:27:56.739Z,16.00
2018-06-17T23:30:25.171Z,16.00
2018-06-17T23:32:53.596Z,16.00
2018-06-17T23:35:21.996Z,15.90
2018-06-17T23:37:50.412Z,16.00
2018-06-17T23:40:18.839Z,16.00
2018-06-17T23:42:47.260Z,16.00
2018-06-17T23:45:15.668Z,16.00
2018-06-17T23:47:49.352Z,16.00
2018-06-17T23:50:22.979Z,16.00
2018-06-17T23:52:56.660Z,16.00
2018-06-17T23:57:58.703Z,16.10
